createdAt,value
2023-04-14T00:01:33.804Z,10.70
2023-04-14T00:04:20.146Z,10.80
2023-04-14T00:07:06.364Z,10.90
2023-04-14T00:09:52.014Z,11.00
2023-04-14T00:12:37.816Z,11.10
2023-04-14T00:15:23.464Z,11.00
2023-04-14T00:18:08.964Z,11.00
2023-04-14T00:20:54.579Z,11.10
2023-04-14T00:23:40.735Z,11.20
2023-04-14T00:26:26.534Z,11.30
2023-04-14T00:29:12.223Z,11.00
2023-04-14T00:31:59.980Z,11.00
2023-04-14T00:34:50.669Z,11.00
2023-04-14T00:37:36.649Z,11.10
2023-04-14T00:40:22.418Z,11.20
2023-04-14T00:43:08.209Z,11.10
2023-04-14T00:45:54.605Z,11.00
2023-04-14T00:48:40.558Z,10.90
2023-04-14T00:51:27.331Z,10.90
2023-04-14T00:54:14.797Z,11.10
2023-04-14T00:57:00.696Z,11.10
2023-04-14T00:59:47.404Z,11.10
2023-04-14T01:02:37.012Z,10.60
2023-04-14T01:05:23.061Z,10.40
2023-04-14T01:08:08.975Z,10.30
2023-04-14T01:11:23.248Z,10.60
2023-04-14T01:14:31.746Z,10.70
2023-04-14T01:17:27.745Z,10.30
2023-04-14T01:20:31.172Z,10.20
2023-04-14T01:23:32.218Z,10.30
2023-04-14T01:26:28.785Z,10.30
2023-04-14T01:29:37.367Z,10.10
2023-04-14T01:32:26.062Z,10.10
2023-04-14T01:35:20.284Z,9.90
2023-04-14T01:38:13.416Z,9.70
2023-04-14T01:41:06.298Z,9.70
2023-04-14T01:43:55.061Z,9.70
2023-04-14T01:46:42.896Z,9.60
2023-04-14T01:49:32.141Z,9.70
2023-04-14T01:52:19.490Z,9.80
2023-04-14T01:55:07.372Z,9.70
2023-04-14T01:57:54.476Z,9.70
2023-04-14T02:00:41.701Z,9.80
2023-04-14T02:03:28.461Z,9.80
2023-04-14T02:06:15.766Z,9.80
2023-04-14T02:09:02.763Z,9.90
2023-04-14T02:11:51.689Z,9.80
2023-04-14T02:14:41.028Z,9.80
2023-04-14T02:17:27.593Z,9.90
2023-04-14T02:20:14.833Z,10.10
2023-04-14T02:23:01.143Z,10.00
2023-04-14T02:25:57.386Z,10.00
2023-04-14T02:29:00.208Z,10.00
2023-04-14T02:31:51.891Z,10.00
2023-04-14T02:34:53.894Z,10.10
2023-04-14T02:37:43.883Z,10.20
2023-04-14T02:40:36.427Z,10.10
2023-04-14T02:43:30.928Z,10.00
2023-04-14T02:46:22.416Z,9.80
2023-04-14T02:49:12.959Z,9.60
2023-04-14T02:51:59.111Z,9.80
2023-04-14T02:54:45.522Z,9.90
2023-04-14T02:57:33.768Z,9.70
2023-04-14T03:00:22.851Z,9.70
2023-04-14T03:03:12.983Z,9.80
2023-04-14T03:05:59.485Z,9.70
2023-04-14T03:08:47.541Z,9.50
2023-04-14T03:11:37.928Z,9.10
2023-04-14T03:14:24.091Z,9.30
2023-04-14T03:17:11.491Z,9.80
2023-04-14T03:19:57.449Z,9.80
2023-04-14T03:22:44.201Z,9.60
2023-04-14T03:25:36.089Z,9.80
2023-04-14T03:28:25.424Z,9.80
2023-04-14T03:31:13.393Z,9.50
2023-04-14T03:34:13.881Z,9.00
2023-04-14T03:37:04.694Z,9.10
2023-04-14T03:39:53.215Z,9.10
2023-04-14T03:42:41.720Z,8.90
2023-04-14T03:45:28.536Z,9.40
2023-04-14T03:48:18.902Z,9.60
2023-04-14T03:51:11.578Z,9.50
2023-04-14T03:53:59.123Z,9.80
2023-04-14T03:56:47.533Z,9.90
2023-04-14T03:59:35.293Z,9.80
2023-04-14T04:02:22.569Z,9.90
2023-04-14T04:05:10.842Z,10.00
2023-04-14T04:08:02.944Z,9.90
2023-04-14T04:10:49.930Z,9.90
2023-04-14T04:13:36.806Z,9.80
2023-04-14T04:16:26.772Z,9.90
2023-04-14T04:19:15.530Z,9.80
2023-04-14T04:22:02.961Z,9.90
2023-04-14T04:24:49.074Z,9.80
2023-04-14T04:27:41.399Z,9.50
2023-04-14T04:30:38.737Z,9.30
2023-04-14T04:33:24.695Z,9.20
2023-04-14T04:36:13.283Z,9.10
2023-04-14T04:39:01.605Z,9.80
2023-04-14T04:42:01.492Z,9.70
2023-04-14T04:44:47.397Z,9.90
2023-04-14T04:47:34.036Z,9.90
2023-04-14T04:50:19.627Z,9.60
2023-04-14T04:53:05.427Z,9.60
2023-04-14T04:55:51.036Z,9.60
2023-04-14T04:58:38.166Z,9.40
2023-04-14T05:01:23.686Z,9.70
2023-04-14T05:04:11.722Z,9.60
2023-04-14T05:06:58.130Z,9.60
2023-04-14T05:09:44.417Z,9.80
2023-04-14T05:12:30.425Z,9.90
2023-04-14T05:15:16.174Z,10.00
2023-04-14T05:18:02.345Z,10.10
2023-04-14T05:20:48.457Z,10.00
2023-04-14T05:23:34.545Z,10.10
2023-04-14T05:26:44.555Z,9.90
2023-04-14T05:29:26.099Z,9.80
2023-04-14T05:32:12.893Z,9.70
2023-04-14T05:34:58.963Z,9.70
2023-04-14T05:37:44.822Z,9.70
2023-04-14T05:40:33.466Z,9.70
2023-04-14T05:43:20.565Z,9.80
2023-04-14T05:46:06.557Z,9.80
2023-04-14T05:48:52.482Z,9.80
2023-04-14T05:51:38.315Z,10.00
2023-04-14T05:54:24.228Z,10.00
2023-04-14T05:57:10.971Z,10.10
2023-04-14T05:59:58.177Z,10.10
2023-04-14T06:02:45.559Z,10.20
2023-04-14T06:05:31.221Z,10.50
2023-04-14T06:08:16.720Z,10.80
2023-04-14T06:11:03.018Z,10.90
2023-04-14T06:13:48.873Z,11.20
2023-04-14T06:16:34.860Z,11.30
2023-04-14T06:23:05.121Z,11.50
2023-04-14T06:25:52.285Z,11.80
2023-04-14T06:28:37.925Z,11.80
2023-04-14T06:31:24.040Z,11.90
2023-04-14T06:34:10.490Z,11.90
2023-04-14T06:36:59.317Z,11.80
2023-04-14T06:39:45.212Z,11.90
2023-04-14T06:42:31.001Z,12.10
2023-04-14T06:45:16.910Z,12.80
2023-04-14T06:48:03.049Z,12.30
2023-04-14T06:50:56.151Z,11.70
2023-04-14T06:53:41.910Z,12.20
2023-04-14T06:56:28.069Z,12.00
2023-04-14T06:59:14.081Z,11.20
2023-04-14T07:02:00.700Z,11.70
2023-04-14T07:04:46.533Z,12.10
2023-04-14T07:07:36.353Z,13.10
2023-04-14T07:10:22.564Z,13.70
2023-04-14T07:13:08.574Z,13.50
2023-04-14T07:15:54.699Z,13.60
2023-04-14T07:18:40.654Z,13.60
2023-04-14T07:21:27.382Z,13.20
2023-04-14T07:24:15.399Z,12.40
2023-04-14T07:27:01.979Z,12.80
2023-04-14T07:29:47.886Z,13.00
2023-04-14T07:32:33.672Z,12.90
2023-04-14T07:35:19.292Z,12.70
2023-04-14T07:38:05.132Z,12.80
2023-04-14T07:40:52.646Z,13.80
2023-04-14T07:43:40.203Z,14.20
2023-04-14T07:46:26.384Z,14.20
2023-04-14T07:49:12.162Z,13.60
2023-04-14T07:51:58.091Z,13.50
2023-04-14T07:54:45.904Z,13.10
2023-04-14T07:57:34.943Z,12.60
2023-04-14T08:00:21.885Z,13.10
2023-04-14T08:03:08.029Z,13.60
2023-04-14T08:05:54.140Z,13.00
2023-04-14T08:08:40.247Z,13.70
2023-04-14T08:11:26.330Z,14.70
2023-04-14T08:14:12.395Z,15.10
2023-04-14T08:16:58.841Z,14.60
2023-04-14T08:19:45.110Z,15.70
2023-04-14T08:22:30.835Z,17.20
2023-04-14T08:25:17.201Z,18.90
2023-04-14T08:28:03.007Z,19.30
2023-04-14T08:30:49.574Z,18.40
2023-04-14T08:33:36.144Z,19.20
2023-04-14T08:36:22.110Z,17.90
2023-04-14T08:39:08.206Z,20.50
2023-04-14T08:41:55.132Z,21.90
2023-04-14T08:44:42.424Z,23.20
2023-04-14T08:47:37.981Z,24.20
2023-04-14T08:50:27.095Z,23.80
2023-04-14T08:53:14.241Z,23.60
2023-04-14T08:56:04.051Z,23.50
2023-04-14T08:58:50.553Z,22.80
2023-04-14T09:01:39.330Z,21.60
2023-04-14T09:04:44.698Z,21.80
2023-04-14T09:07:32.228Z,22.20
2023-04-14T09:10:23.283Z,21.80
2023-04-14T09:13:15.145Z,21.90
2023-04-14T09:16:07.275Z,22.00
2023-04-14T09:19:07.966Z,23.00
2023-04-14T09:21:55.804Z,24.00
2023-04-14T09:24:43.959Z,24.00
2023-04-14T09:27:32.268Z,24.00
2023-04-14T09:30:18.893Z,23.20
2023-04-14T09:33:06.774Z,24.50
2023-04-14T09:35:52.987Z,23.80
2023-04-14T09:38:39.428Z,23.80
2023-04-14T09:41:26.236Z,24.70
2023-04-14T09:44:12.360Z,23.70
2023-04-14T09:47:05.147Z,25.70
2023-04-14T09:50:05.896Z,25.30
2023-04-14T09:52:52.684Z,25.40
2023-04-14T09:55:45.680Z,26.20
2023-04-14T09:58:45.496Z,26.40
2023-04-14T10:01:34.430Z,24.90
2023-04-14T10:04:24.896Z,24.10
2023-04-14T10:07:12.293Z,24.60
2023-04-14T10:09:58.132Z,25.50
2023-04-14T10:12:44.400Z,25.00
2023-04-14T10:15:31.119Z,25.00
2023-04-14T10:18:17.138Z,24.50
2023-04-14T10:21:11.652Z,25.80
2023-04-14T10:23:58.212Z,26.60
2023-04-14T10:26:47.314Z,26.50
2023-04-14T10:29:34.576Z,25.90
2023-04-14T10:32:22.589Z,26.20
2023-04-14T10:35:15.295Z,25.80
2023-04-14T10:38:01.352Z,25.80
2023-04-14T10:40:48.245Z,26.50
2023-04-14T10:43:38.209Z,26.70
2023-04-14T10:46:24.793Z,27.00
2023-04-14T10:49:13.272Z,27.40
2023-04-14T10:52:03.973Z,27.30
2023-04-14T10:55:01.875Z,27.30
2023-04-14T10:58:02.240Z,27.00
2023-04-14T11:00:51.593Z,27.90
2023-04-14T11:03:46.806Z,28.40
2023-04-14T11:06:53.515Z,28.20
2023-04-14T11:09:39.668Z,28.30
2023-04-14T11:12:27.894Z,27.20
2023-04-14T11:15:17.327Z,26.10
2023-04-14T11:18:15.378Z,27.60
2023-04-14T11:21:08.308Z,28.50
2023-04-14T11:23:54.317Z,28.00
2023-04-14T11:26:40.706Z,27.30
2023-04-14T11:29:26.690Z,26.90
2023-04-14T11:32:13.119Z,27.20
2023-04-14T11:35:08.025Z,27.20
2023-04-14T11:37:55.979Z,27.70
2023-04-14T11:40:41.808Z,26.60
2023-04-14T11:43:30.886Z,26.60
2023-04-14T11:46:23.592Z,26.90
2023-04-14T11:49:09.755Z,27.80
2023-04-14T11:51:56.688Z,27.50
2023-04-14T11:54:42.635Z,27.60
2023-04-14T11:57:28.509Z,26.50
2023-04-14T12:00:14.684Z,25.60
2023-04-14T12:03:03.852Z,27.10
2023-04-14T12:05:49.759Z,27.00
2023-04-14T12:08:35.857Z,26.10
2023-04-14T12:11:22.993Z,26.00
2023-04-14T12:14:09.483Z,27.90
2023-04-14T12:16:55.609Z,28.50
2023-04-14T12:19:42.775Z,28.60
2023-04-14T12:22:29.998Z,26.20
2023-04-14T12:25:16.035Z,26.30
2023-04-14T12:28:05.905Z,26.50
2023-04-14T12:30:59.579Z,26.00
2023-04-14T12:33:45.098Z,27.50
2023-04-14T12:36:48.032Z,28.70
2023-04-14T12:39:59.355Z,29.30
2023-04-14T12:42:51.429Z,28.60
2023-04-14T12:45:45.394Z,28.80
2023-04-14T12:48:48.492Z,28.40
2023-04-14T12:51:41.485Z,28.70
2023-04-14T12:54:27.664Z,26.90
2023-04-14T12:57:13.674Z,26.40
2023-04-14T13:00:01.025Z,27.10
2023-04-14T13:02:47.228Z,27.20
2023-04-14T13:05:33.235Z,25.90
2023-04-14T13:08:19.010Z,24.20
2023-04-14T13:11:05.038Z,22.50
2023-04-14T13:13:52.481Z,20.90
2023-04-14T13:16:38.592Z,20.60
2023-04-14T13:19:24.430Z,20.40
2023-04-14T13:22:10.402Z,20.10
2023-04-14T13:24:59.974Z,20.20
2023-04-14T13:27:46.137Z,19.90
2023-04-14T13:30:31.676Z,19.80
2023-04-14T13:33:17.361Z,19.80
2023-04-14T13:36:03.657Z,20.00
2023-04-14T13:38:49.514Z,20.00
2023-04-14T13:41:35.430Z,20.00
2023-04-14T13:44:21.289Z,20.20
2023-04-14T13:47:07.402Z,20.20
2023-04-14T13:49:53.601Z,20.20
2023-04-14T13:52:41.187Z,19.90
2023-04-14T13:55:27.137Z,20.30
2023-04-14T13:58:13.709Z,19.90
2023-04-14T14:01:08.424Z,20.10
2023-04-14T14:03:55.107Z,19.90
2023-04-14T14:06:41.290Z,19.80
2023-04-14T14:09:27.917Z,19.90
2023-04-14T14:12:14.740Z,19.80
2023-04-14T14:15:00.907Z,19.70
2023-04-14T14:17:46.999Z,19.80
2023-04-14T14:20:33.013Z,20.20
2023-04-14T14:23:19.065Z,20.20
2023-04-14T14:26:04.941Z,20.20
2023-04-14T14:28:50.746Z,20.50
2023-04-14T14:31:36.446Z,20.30
2023-04-14T14:34:22.651Z,20.40
2023-04-14T14:37:08.627Z,20.50
2023-04-14T14:39:54.595Z,20.60
2023-04-14T14:42:40.467Z,20.10
2023-04-14T14:45:30.850Z,20.30
2023-04-14T14:48:17.472Z,20.00
2023-04-14T14:51:03.180Z,19.90
2023-04-14T14:53:48.669Z,20.00
2023-04-14T14:56:37.088Z,20.00
2023-04-14T14:59:23.719Z,19.90
2023-04-14T15:02:09.665Z,19.80
2023-04-14T15:04:55.686Z,19.90
2023-04-14T15:07:41.692Z,19.90
2023-04-14T15:10:27.683Z,19.90
2023-04-14T15:13:13.921Z,20.10
2023-04-14T15:15:59.756Z,20.20
2023-04-14T15:18:45.800Z,20.00
2023-04-14T15:21:32.846Z,20.00
2023-04-14T15:24:19.414Z,20.00
2023-04-14T15:27:05.896Z,20.30
2023-04-14T15:29:51.794Z,19.80
2023-04-14T15:32:37.730Z,19.60
2023-04-14T15:35:24.338Z,19.90
2023-04-14T15:38:09.671Z,19.90
2023-04-14T15:40:55.627Z,19.90
2023-04-14T15:43:43.850Z,19.90
2023-04-14T15:46:29.959Z,19.80
2023-04-14T15:49:15.912Z,19.90
2023-04-14T15:52:01.698Z,20.00
2023-04-14T15:54:47.748Z,20.00
2023-04-14T15:57:33.351Z,20.00
2023-04-14T16:00:20.048Z,20.10
2023-04-14T16:03:06.038Z,20.00
2023-04-14T16:06:04.252Z,20.10
2023-04-14T16:08:50.589Z,19.90
2023-04-14T16:11:36.410Z,20.00
2023-04-14T16:14:22.151Z,20.00
2023-04-14T16:17:07.757Z,19.70
2023-04-14T16:19:53.872Z,19.70
2023-04-14T16:22:39.997Z,19.80
2023-04-14T16:25:25.854Z,19.80
2023-04-14T16:28:11.677Z,19.60
2023-04-14T16:30:59.895Z,19.70
2023-04-14T16:33:46.011Z,19.90
2023-04-14T16:36:33.355Z,19.80
2023-04-14T16:39:19.733Z,19.90
2023-04-14T16:42:07.812Z,19.90
2023-04-14T16:44:54.187Z,19.90
2023-04-14T16:47:39.803Z,19.90
2023-04-14T16:50:26.407Z,19.70
2023-04-14T16:53:13.489Z,19.80
2023-04-14T16:56:07.156Z,19.80
2023-04-14T16:58:53.105Z,19.80
2023-04-14T17:01:38.717Z,19.90
2023-04-14T17:04:25.027Z,20.00
2023-04-14T17:07:11.923Z,20.10
2023-04-14T17:10:00.544Z,20.00
2023-04-14T17:12:55.287Z,19.90
2023-04-14T17:15:44.042Z,19.50
2023-04-14T17:18:30.731Z,19.40
2023-04-14T17:21:16.563Z,19.50
2023-04-14T17:24:03.771Z,19.40
2023-04-14T17:26:50.519Z,19.10
2023-04-14T17:29:44.801Z,19.10
2023-04-14T17:32:31.384Z,19.10
2023-04-14T17:35:17.113Z,19.00
2023-04-14T17:38:04.153Z,18.90
2023-04-14T17:40:51.365Z,18.80
2023-04-14T17:43:39.269Z,18.80
2023-04-14T17:46:33.516Z,18.60
2023-04-14T17:49:21.394Z,18.40
2023-04-14T17:52:07.880Z,18.20
2023-04-14T17:54:55.919Z,18.30
2023-04-14T17:57:42.369Z,18.30
2023-04-14T18:00:29.374Z,18.20
2023-04-14T18:03:16.400Z,18.00
2023-04-14T18:06:02.745Z,17.90
2023-04-14T18:08:48.264Z,18.00
2023-04-14T18:15:41.139Z,17.80
2023-04-14T18:18:27.762Z,17.70
2023-04-14T18:21:14.609Z,17.60
2023-04-14T18:26:49.105Z,17.60
2023-04-14T18:29:38.453Z,17.40
2023-04-14T18:32:29.851Z,17.60
2023-04-14T18:35:16.227Z,17.50
2023-04-14T18:38:01.872Z,17.50
2023-04-14T18:40:48.683Z,17.20
2023-04-14T18:43:34.544Z,17.10
2023-04-14T18:46:21.535Z,15.90
2023-04-14T18:49:07.054Z,16.90
2023-04-14T18:51:56.252Z,16.70
2023-04-14T18:54:42.053Z,16.50
2023-04-14T18:57:29.189Z,16.60
2023-04-14T19:00:14.940Z,16.40
2023-04-14T19:03:02.988Z,16.40
2023-04-14T19:05:50.103Z,16.30
2023-04-14T19:08:36.261Z,16.30
2023-04-14T19:11:21.985Z,16.20
2023-04-14T19:14:07.725Z,16.10
2023-04-14T19:16:54.040Z,15.40
2023-04-14T19:19:40.205Z,16.10
2023-04-14T19:22:26.148Z,16.10
2023-04-14T19:25:12.134Z,16.20
2023-04-14T19:27:59.757Z,16.20
2023-04-14T19:30:46.083Z,16.20
2023-04-14T19:33:32.882Z,16.20
2023-04-14T19:36:18.446Z,16.20
2023-04-14T19:39:05.354Z,16.20
2023-04-14T19:41:51.591Z,16.20
2023-04-14T19:44:37.621Z,16.10
2023-04-14T19:47:23.775Z,16.00
2023-04-14T19:50:11.796Z,16.00
2023-04-14T19:52:57.663Z,16.00
2023-04-14T19:55:49.752Z,16.00
2023-04-14T19:58:36.471Z,15.90
2023-04-14T20:01:24.284Z,15.90
2023-04-14T20:04:12.287Z,16.00
2023-04-14T20:06:58.382Z,16.00
2023-04-14T20:09:46.759Z,16.00
2023-04-14T20:12:33.333Z,16.00
2023-04-14T20:15:19.152Z,16.10
2023-04-14T20:18:05.114Z,16.00
2023-04-14T20:20:51.709Z,16.00
2023-04-14T20:23:37.965Z,15.70
2023-04-14T20:26:23.761Z,15.70
2023-04-14T20:29:10.876Z,15.80
2023-04-14T20:31:57.230Z,15.70
2023-04-14T20:34:43.107Z,15.60
2023-04-14T20:37:29.801Z,15.50
2023-04-14T20:40:18.114Z,15.50
2023-04-14T20:43:04.930Z,15.60
2023-04-14T20:45:53.351Z,15.50
2023-04-14T20:48:39.351Z,15.60
2023-04-14T20:51:25.465Z,15.50
2023-04-14T20:54:12.345Z,15.40
2023-04-14T20:56:58.377Z,15.30
2023-04-14T20:59:44.648Z,15.30
2023-04-14T21:02:31.361Z,15.40
2023-04-14T21:05:18.705Z,15.40
2023-04-14T21:08:05.013Z,15.40
2023-04-14T21:11:16.190Z,15.40
2023-04-14T21:15:30.207Z,15.30
2023-04-14T21:17:03.784Z,15.40
2023-04-14T21:19:49.942Z,15.30
2023-04-14T21:22:36.259Z,15.40
2023-04-14T21:25:22.570Z,15.30
2023-04-14T21:28:08.814Z,15.20
2023-04-14T21:31:01.308Z,15.40
2023-04-14T21:33:47.222Z,15.60
2023-04-14T21:36:33.113Z,15.50
2023-04-14T21:39:20.521Z,15.40
2023-04-14T21:42:06.331Z,15.40
2023-04-14T21:44:52.505Z,15.50
2023-04-14T21:47:38.739Z,15.50
2023-04-14T21:50:24.625Z,15.40
2023-04-14T21:53:10.418Z,15.50
2023-04-14T21:56:03.426Z,15.40
2023-04-14T21:58:56.562Z,15.40
2023-04-14T22:01:42.914Z,15.40
2023-04-14T22:04:36.501Z,15.10
2023-04-14T22:07:22.768Z,15.10
2023-04-14T22:10:08.864Z,15.30
2023-04-14T22:12:54.681Z,15.30
2023-04-14T22:15:43.024Z,15.30
2023-04-14T22:18:28.835Z,15.20
2023-04-14T22:21:14.851Z,15.10
2023-04-14T22:24:00.514Z,15.10
2023-04-14T22:26:47.226Z,15.10
2023-04-14T22:29:32.820Z,15.20
2023-04-14T22:32:18.638Z,15.00
2023-04-14T22:35:04.780Z,14.90
2023-04-14T22:37:50.359Z,14.80
2023-04-14T22:40:36.353Z,14.90
2023-04-14T22:43:22.323Z,15.00
2023-04-14T22:46:08.490Z,14.90
2023-04-14T22:48:56.602Z,15.10
2023-04-14T22:51:42.237Z,15.30
2023-04-14T22:54:28.005Z,15.30
2023-04-14T22:57:13.593Z,15.10
2023-04-14T22:59:59.331Z,14.40
2023-04-14T23:02:45.386Z,14.10
2023-04-14T23:05:31.278Z,14.20
2023-04-14T23:08:17.162Z,14.00
2023-04-14T23:11:03.108Z,13.80
2023-04-14T23:13:50.031Z,14.20
2023-04-14T23:16:35.567Z,14.50
2023-04-14T23:19:21.561Z,14.40
2023-04-14T23:22:07.641Z,14.20
2023-04-14T23:24:53.779Z,14.40
2023-04-14T23:27:39.637Z,14.50
2023-04-14T23:30:26.229Z,14.50
2023-04-14T23:33:12.151Z,14.40
2023-04-14T23:35:58.177Z,14.40
2023-04-14T23:38:43.841Z,14.00
2023-04-14T23:41:30.032Z,14.00
2023-04-14T23:44:16.554Z,13.90
2023-04-14T23:47:02.480Z,13.60
2023-04-14T23:49:48.245Z,13.50
2023-04-14T23:52:35.975Z,13.40
2023-04-14T23:55:22.178Z,13.60
2023-04-14T23:58:07.887Z,13.80
